Avioradar koristi kolačiće da bi Vam omogućio jednostavnije i ugodnije korištenje stranice. 

AVIORADAR - Novosti i informacije

Poremećaj 13.08.2017 - Dubrovnik - Udari bure

Nenad Sredojević.

Bura

Poremećaj u zračnom prometu na ZL Dubrovnik se nastavio i danas.

METAR COR LDDU 130930Z 04021G37KT 350V090 CAVOK 26/08 Q1013 WS R12 TEMPO VRB18G30KT =
METAR LDDU 130900Z VRB17G41KT CAVOK 25/08 Q1013 WS R12 NOSIG =
METAR LDDU 130830Z 04019G36KT 350V090 CAVOK 24/08 Q1013 WS R12 NOSIG =
METAR LDDU 130800Z 03026G40KT 340V070 CAVOK 24/09 Q1013 WS R12 NOSIG =
METAR LDDU 130730Z 04027G39KT 350V070 CAVOK 23/09 Q1012 WS R12 NOSIG =
METAR COR LDDU 130700Z 04026G38KT 010V070 CAVOK 23/09 Q1012 WS R12 NOSIG =
METAR COR LDDU 130630Z 04027G37KT 010V080 CAVOK 23/09 Q1013 WS 12 NOSIG =


I ovaj put uzrok je jaka bura čiji udari premašuju dozvoljene limite za slijetanje.

Poremećaj 12.08.2017 - Dubrovnik - nevrijeme

Poremećajem zahvaćeni dolasci: 

U21211 / EZS86PN iz BSL -> PREUSMJEREN na BRI -> @DBV 1233LT

TO3746 /TVF3746 iz ORY -> PREUSMJEREN na ZAD -> @DBV 1225LT

AZ530 / AZA530 iz FCO -> PREUSMJEREN na TIA -> @DBV 1325LT

TK439 /THY439 iz IST -> PREUSMJEREN na TGD -> @DBV 1210LT

U23025 / EZY13GJ iz STN -> PRESMJEREN na BRI -> @DBV 1300LT

Malo prije 1200LT stanje se normaliziralo te su počela slijetanja i preusmjereni letovi se vraćaju na DBV.

 

Foto: Avioradar

Twitter